sensor_id;sensor_type;location;lat;lon;timestamp;temperature;humidity
26342;DHT22;14054;50.108;8.640;2023-04-22T00:00:17;12.80;99.90
26342;DHT22;14054;50.108;8.640;2023-04-22T00:02:43;12.70;99.90
26342;DHT22;14054;50.108;8.640;2023-04-22T00:05:09;12.70;99.90
26342;DHT22;14054;50.108;8.640;2023-04-22T00:07:40;12.60;99.90
26342;DHT22;14054;50.108;8.640;2023-04-22T00:10:07;12.60;99.90
26342;DHT22;14054;50.108;8.640;2023-04-22T00:12:33;12.50;99.90
26342;DHT22;14054;50.108;8.640;2023-04-22T00:14:58;12.50;99.90
26342;DHT22;14054;50.108;8.640;2023-04-22T00:17:24;12.50;99.90
26342;DHT22;14054;50.108;8.640;2023-04-22T00:19:50;12.50;99.90
26342;DHT22;14054;50.108;8.640;2023-04-22T00:22:15;12.50;99.90
26342;DHT22;14054;50.108;8.640;2023-04-22T00:24:40;12.50;99.90
26342;DHT22;14054;50.108;8.640;2023-04-22T00:27:06;12.40;99.90
26342;DHT22;14054;50.108;8.640;2023-04-22T00:29:32;12.50;99.90
26342;DHT22;14054;50.108;8.640;2023-04-22T00:31:57;12.40;99.90
26342;DHT22;14054;50.108;8.640;2023-04-22T00:34:23;12.30;99.90
26342;DHT22;14054;50.108;8.640;2023-04-22T00:36:48;12.40;99.90
26342;DHT22;14054;50.108;8.640;2023-04-22T00:39:15;12.30;99.90
26342;DHT22;14054;50.108;8.640;2023-04-22T00:41:41;12.30;99.90
26342;DHT22;14054;50.108;8.640;2023-04-22T00:44:10;12.30;99.90
26342;DHT22;14054;50.108;8.640;2023-04-22T00:46:36;12.20;99.90
26342;DHT22;14054;50.108;8.640;2023-04-22T00:49:01;12.20;99.90
26342;DHT22;14054;50.108;8.640;2023-04-22T00:51:27;12.20;99.90
26342;DHT22;14054;50.108;8.640;2023-04-22T00:53:52;12.40;99.90
26342;DHT22;14054;50.108;8.640;2023-04-22T00:56:18;13.10;99.90
26342;DHT22;14054;50.108;8.640;2023-04-22T00:58:44;12.10;99.90
26342;DHT22;14054;50.108;8.640;2023-04-22T01:01:10;12.10;99.90
26342;DHT22;14054;50.108;8.640;2023-04-22T01:03:37;12.10;99.90
26342;DHT22;14054;50.108;8.640;2023-04-22T01:06:03;12.10;99.90
26342;DHT22;14054;50.108;8.640;2023-04-22T01:08:28;12.20;99.90
26342;DHT22;14054;50.108;8.640;2023-04-22T01:10:55;12.10;99.90
26342;DHT22;14054;50.108;8.640;2023-04-22T01:13:20;12.50;99.90
26342;DHT22;14054;50.108;8.640;2023-04-22T01:15:45;12.10;99.90
26342;DHT22;14054;50.108;8.640;2023-04-22T01:18:11;12.10;99.90
26342;DHT22;14054;50.108;8.640;2023-04-22T01:20:37;12.10;99.90
26342;DHT22;14054;50.108;8.640;2023-04-22T01:23:02;12.00;99.90
26342;DHT22;14054;50.108;8.640;2023-04-22T01:25:34;12.00;99.90
26342;DHT22;14054;50.108;8.640;2023-04-22T01:27:59;12.00;99.90
26342;DHT22;14054;50.108;8.640;2023-04-22T01:30:25;12.00;99.90
26342;DHT22;14054;50.108;8.640;2023-04-22T01:32:51;12.40;99.90
26342;DHT22;14054;50.108;8.640;2023-04-22T01:35:16;12.00;99.90
26342;DHT22;14054;50.108;8.640;2023-04-22T01:37:42;12.50;99.90
26342;DHT22;14054;50.108;8.640;2023-04-22T01:40:08;12.00;99.90
26342;DHT22;14054;50.108;8.640;2023-04-22T01:42:33;12.00;99.90
26342;DHT22;14054;50.108;8.640;2023-04-22T01:44:58;12.10;99.90
26342;DHT22;14054;50.108;8.640;2023-04-22T01:47:24;12.10;99.90
26342;DHT22;14054;50.108;8.640;2023-04-22T01:49:51;12.30;99.90
26342;DHT22;14054;50.108;8.640;2023-04-22T01:52:17;12.90;99.90
26342;DHT22;14054;50.108;8.640;2023-04-22T01:54:42;12.10;99.90
26342;DHT22;14054;50.108;8.640;2023-04-22T01:57:09;12.00;99.90
26342;DHT22;14054;50.108;8.640;2023-04-22T01:59:38;12.00;99.90
26342;DHT22;14054;50.108;8.640;2023-04-22T02:02:04;12.00;99.90
26342;DHT22;14054;50.108;8.640;2023-04-22T02:04:30;12.00;99.90
26342;DHT22;14054;50.108;8.640;2023-04-22T02:06:55;12.00;99.90
26342;DHT22;14054;50.108;8.640;2023-04-22T02:09:20;12.10;99.90
26342;DHT22;14054;50.108;8.640;2023-04-22T02:11:46;12.50;99.90
26342;DHT22;14054;50.108;8.640;2023-04-22T02:14:11;11.90;99.90
26342;DHT22;14054;50.108;8.640;2023-04-22T02:16:37;12.00;99.90
26342;DHT22;14054;50.108;8.640;2023-04-22T02:19:02;11.90;99.90
26342;DHT22;14054;50.108;8.640;2023-04-22T02:21:28;11.90;99.90
26342;DHT22;14054;50.108;8.640;2023-04-22T02:23:54;11.90;99.90
26342;DHT22;14054;50.108;8.640;2023-04-22T02:26:19;11.90;99.90
26342;DHT22;14054;50.108;8.640;2023-04-22T02:28:45;11.90;99.90
26342;DHT22;14054;50.108;8.640;2023-04-22T02:31:10;11.90;99.90
26342;DHT22;14054;50.108;8.640;2023-04-22T02:33:35;11.90;99.90
26342;DHT22;14054;50.108;8.640;2023-04-22T02:36:01;12.00;99.90
26342;DHT22;14054;50.108;8.640;2023-04-22T02:38:27;12.00;99.90
26342;DHT22;14054;50.108;8.640;2023-04-22T02:40:52;12.00;99.90
26342;DHT22;14054;50.108;8.640;2023-04-22T02:43:18;12.00;99.90
26342;DHT22;14054;50.108;8.640;2023-04-22T02:45:43;12.00;99.90
26342;DHT22;14054;50.108;8.640;2023-04-22T02:48:08;12.00;99.90
26342;DHT22;14054;50.108;8.640;2023-04-22T02:50:34;12.00;99.90
26342;DHT22;14054;50.108;8.640;2023-04-22T02:53:00;11.90;99.90
26342;DHT22;14054;50.108;8.640;2023-04-22T02:55:25;11.90;99.90
26342;DHT22;14054;50.108;8.640;2023-04-22T02:57:51;12.00;99.90
26342;DHT22;14054;50.108;8.640;2023-04-22T03:00:16;12.00;99.90
26342;DHT22;14054;50.108;8.640;2023-04-22T03:02:42;12.00;99.90
26342;DHT22;14054;50.108;8.640;2023-04-22T03:05:07;11.90;99.90
26342;DHT22;14054;50.108;8.640;2023-04-22T03:07:33;11.90;99.90
26342;DHT22;14054;50.108;8.640;2023-04-22T03:09:58;12.00;99.90
26342;DHT22;14054;50.108;8.640;2023-04-22T03:12:24;11.90;99.90
26342;DHT22;14054;50.108;8.640;2023-04-22T03:14:49;11.90;99.90
26342;DHT22;14054;50.108;8.640;2023-04-22T03:17:14;12.00;99.90
26342;DHT22;14054;50.108;8.640;2023-04-22T03:19:40;12.00;99.90
26342;DHT22;14054;50.108;8.640;2023-04-22T03:22:05;12.00;99.90
26342;DHT22;14054;50.108;8.640;2023-04-22T03:24:31;12.00;99.90
26342;DHT22;14054;50.108;8.640;2023-04-22T03:26:56;12.00;99.90
26342;DHT22;14054;50.108;8.640;2023-04-22T03:29:22;11.90;99.90
26342;DHT22;14054;50.108;8.640;2023-04-22T03:31:47;11.90;99.90
26342;DHT22;14054;50.108;8.640;2023-04-22T03:34:12;11.90;99.90
26342;DHT22;14054;50.108;8.640;2023-04-22T03:36:38;11.90;99.90
26342;DHT22;14054;50.108;8.640;2023-04-22T03:39:03;11.90;99.90
26342;DHT22;14054;50.108;8.640;2023-04-22T03:41:29;11.90;99.90
26342;DHT22;14054;50.108;8.640;2023-04-22T03:43:54;11.80;99.90
26342;DHT22;14054;50.108;8.640;2023-04-22T03:46:20;11.80;99.90
26342;DHT22;14054;50.108;8.640;2023-04-22T03:48:45;11.80;99.90
26342;DHT22;14054;50.108;8.640;2023-04-22T03:51:11;11.80;99.90
26342;DHT22;14054;50.108;8.640;2023-04-22T03:53:36;11.80;99.90
26342;DHT22;14054;50.108;8.640;2023-04-22T03:56:02;11.70;99.90
26342;DHT22;14054;50.108;8.640;2023-04-22T03:58:27;11.70;99.90
26342;DHT22;14054;50.108;8.640;2023-04-22T04:00:52;11.70;99.90
26342;DHT22;14054;50.108;8.640;2023-04-22T04:03:18;11.70;99.90
26342;DHT22;14054;50.108;8.640;2023-04-22T04:05:43;11.60;99.90
26342;DHT22;14054;50.108;8.640;2023-04-22T04:08:09;11.60;99.90
26342;DHT22;14054;50.108;8.640;2023-04-22T04:10:35;11.60;99.90
26342;DHT22;14054;50.108;8.640;2023-04-22T04:13:01;11.70;99.90
26342;DHT22;14054;50.108;8.640;2023-04-22T04:15:26;11.70;99.90
26342;DHT22;14054;50.108;8.640;2023-04-22T04:17:52;11.90;99.90
26342;DHT22;14054;50.108;8.640;2023-04-22T04:20:17;11.70;99.90
26342;DHT22;14054;50.108;8.640;2023-04-22T04:22:43;11.70;99.90
26342;DHT22;14054;50.108;8.640;2023-04-22T04:25:08;11.70;99.90
26342;DHT22;14054;50.108;8.640;2023-04-22T04:27:35;11.70;99.90
26342;DHT22;14054;50.108;8.640;2023-04-22T04:30:02;11.70;99.90
26342;DHT22;14054;50.108;8.640;2023-04-22T04:32:28;11.60;99.90
26342;DHT22;14054;50.108;8.640;2023-04-22T04:34:53;11.60;99.90
26342;DHT22;14054;50.108;8.640;2023-04-22T04:37:19;11.70;99.90
26342;DHT22;14054;50.108;8.640;2023-04-22T04:39:46;11.40;99.90
26342;DHT22;14054;50.108;8.640;2023-04-22T04:42:12;11.40;99.90
26342;DHT22;14054;50.108;8.640;2023-04-22T04:44:38;11.40;99.90
26342;DHT22;14054;50.108;8.640;2023-04-22T04:47:04;12.10;99.90
26342;DHT22;14054;50.108;8.640;2023-04-22T04:49:29;11.20;99.90
26342;DHT22;14054;50.108;8.640;2023-04-22T04:51:55;11.20;99.90
26342;DHT22;14054;50.108;8.640;2023-04-22T04:54:20;11.20;99.90
26342;DHT22;14054;50.108;8.640;2023-04-22T04:56:46;11.20;99.90
26342;DHT22;14054;50.108;8.640;2023-04-22T04:59:11;11.10;99.90
26342;DHT22;14054;50.108;8.640;2023-04-22T05:01:37;11.10;99.90
26342;DHT22;14054;50.108;8.640;2023-04-22T05:04:02;11.10;99.90
26342;DHT22;14054;50.108;8.640;2023-04-22T05:06:28;11.10;99.90
26342;DHT22;14054;50.108;8.640;2023-04-22T05:08:53;11.00;99.90
26342;DHT22;14054;50.108;8.640;2023-04-22T05:11:19;11.10;99.90
26342;DHT22;14054;50.108;8.640;2023-04-22T05:13:44;11.10;99.90
26342;DHT22;14054;50.108;8.640;2023-04-22T05:16:10;11.10;99.90
26342;DHT22;14054;50.108;8.640;2023-04-22T05:18:35;11.10;99.90
26342;DHT22;14054;50.108;8.640;2023-04-22T05:21:01;11.10;99.90
26342;DHT22;14054;50.108;8.640;2023-04-22T05:23:28;11.10;99.90
26342;DHT22;14054;50.108;8.640;2023-04-22T05:25:55;11.30;99.90
26342;DHT22;14054;50.108;8.640;2023-04-22T05:28:20;11.30;99.90
26342;DHT22;14054;50.108;8.640;2023-04-22T05:30:45;11.10;99.90
26342;DHT22;14054;50.108;8.640;2023-04-22T05:33:11;11.10;99.90
26342;DHT22;14054;50.108;8.640;2023-04-22T05:35:36;11.10;99.90
26342;DHT22;14054;50.108;8.640;2023-04-22T05:38:02;11.10;99.90
26342;DHT22;14054;50.108;8.640;2023-04-22T05:40:27;11.10;99.90
26342;DHT22;14054;50.108;8.640;2023-04-22T05:42:53;11.20;99.90
26342;DHT22;14054;50.108;8.640;2023-04-22T05:45:18;11.30;99.90
26342;DHT22;14054;50.108;8.640;2023-04-22T05:47:44;11.30;99.90
26342;DHT22;14054;50.108;8.640;2023-04-22T05:50:09;11.30;99.90
26342;DHT22;14054;50.108;8.640;2023-04-22T05:52:35;11.30;99.90
26342;DHT22;14054;50.108;8.640;2023-04-22T05:55:00;11.30;99.90
26342;DHT22;14054;50.108;8.640;2023-04-22T05:57:26;11.30;99.90
26342;DHT22;14054;50.108;8.640;2023-04-22T05:59:51;11.30;99.90
26342;DHT22;14054;50.108;8.640;2023-04-22T06:02:16;11.40;99.90
26342;DHT22;14054;50.108;8.640;2023-04-22T06:04:42;11.50;99.90
26342;DHT22;14054;50.108;8.640;2023-04-22T06:07:07;11.60;99.90
26342;DHT22;14054;50.108;8.640;2023-04-22T06:09:33;11.70;99.90
26342;DHT22;14054;50.108;8.640;2023-04-22T06:11:58;11.80;99.90
26342;DHT22;14054;50.108;8.640;2023-04-22T06:14:24;11.90;99.90
26342;DHT22;14054;50.108;8.640;2023-04-22T06:16:49;12.30;99.90
26342;DHT22;14054;50.108;8.640;2023-04-22T06:19:16;12.00;99.90
26342;DHT22;14054;50.108;8.640;2023-04-22T06:21:42;12.20;99.90
26342;DHT22;14054;50.108;8.640;2023-04-22T06:24:07;12.10;99.90
26342;DHT22;14054;50.108;8.640;2023-04-22T06:26:35;12.10;99.90
26342;DHT22;14054;50.108;8.640;2023-04-22T06:29:00;12.60;99.90
26342;DHT22;14054;50.108;8.640;2023-04-22T06:31:27;12.20;99.90
26342;DHT22;14054;50.108;8.640;2023-04-22T06:33:52;12.70;99.90
26342;DHT22;14054;50.108;8.640;2023-04-22T06:36:17;12.30;99.90
26342;DHT22;14054;50.108;8.640;2023-04-22T06:38:43;12.50;99.90
26342;DHT22;14054;50.108;8.640;2023-04-22T06:41:08;12.50;99.90
26342;DHT22;14054;50.108;8.640;2023-04-22T06:43:34;12.60;99.90
26342;DHT22;14054;50.108;8.640;2023-04-22T06:45:59;12.70;99.90
26342;DHT22;14054;50.108;8.640;2023-04-22T06:48:25;13.10;99.90
26342;DHT22;14054;50.108;8.640;2023-04-22T06:50:51;12.80;99.90
26342;DHT22;14054;50.108;8.640;2023-04-22T06:53:17;13.30;99.90
26342;DHT22;14054;50.108;8.640;2023-04-22T06:55:42;12.90;99.90
26342;DHT22;14054;50.108;8.640;2023-04-22T06:58:08;13.00;99.90
26342;DHT22;14054;50.108;8.640;2023-04-22T07:00:33;13.00;99.90
26342;DHT22;14054;50.108;8.640;2023-04-22T07:02:58;13.10;99.90
26342;DHT22;14054;50.108;8.640;2023-04-22T07:05:24;13.10;99.90
26342;DHT22;14054;50.108;8.640;2023-04-22T07:07:49;13.00;99.90
26342;DHT22;14054;50.108;8.640;2023-04-22T07:10:15;13.40;99.90
26342;DHT22;14054;50.108;8.640;2023-04-22T07:12:40;13.40;99.90
26342;DHT22;14054;50.108;8.640;2023-04-22T07:15:06;13.40;99.90
26342;DHT22;14054;50.108;8.640;2023-04-22T07:17:32;13.50;99.90
26342;DHT22;14054;50.108;8.640;2023-04-22T07:19:57;13.70;99.90
26342;DHT22;14054;50.108;8.640;2023-04-22T07:22:22;13.80;99.90
26342;DHT22;14054;50.108;8.640;2023-04-22T07:24:48;14.00;99.90
26342;DHT22;14054;50.108;8.640;2023-04-22T07:27:13;14.10;99.90
26342;DHT22;14054;50.108;8.640;2023-04-22T07:29:39;14.20;99.90
26342;DHT22;14054;50.108;8.640;2023-04-22T07:32:04;14.20;99.90
26342;DHT22;14054;50.108;8.640;2023-04-22T07:34:30;14.20;99.90
26342;DHT22;14054;50.108;8.640;2023-04-22T07:36:56;14.50;99.90
26342;DHT22;14054;50.108;8.640;2023-04-22T07:39:21;14.70;99.90
26342;DHT22;14054;50.108;8.640;2023-04-22T07:41:47;15.00;99.90
26342;DHT22;14054;50.108;8.640;2023-04-22T07:44:12;15.00;99.90
26342;DHT22;14054;50.108;8.640;2023-04-22T07:46:41;15.20;99.90
26342;DHT22;14054;50.108;8.640;2023-04-22T07:49:07;15.30;99.90
26342;DHT22;14054;50.108;8.640;2023-04-22T07:51:32;15.20;99.90
26342;DHT22;14054;50.108;8.640;2023-04-22T07:53:58;15.30;99.90
26342;DHT22;14054;50.108;8.640;2023-04-22T07:56:23;15.40;99.90
26342;DHT22;14054;50.108;8.640;2023-04-22T07:58:49;15.50;99.90
26342;DHT22;14054;50.108;8.640;2023-04-22T08:01:14;15.80;99.90
26342;DHT22;14054;50.108;8.640;2023-04-22T08:03:40;16.20;99.90
26342;DHT22;14054;50.108;8.640;2023-04-22T08:06:05;16.40;99.90
26342;DHT22;14054;50.108;8.640;2023-04-22T08:08:31;16.50;99.90
26342;DHT22;14054;50.108;8.640;2023-04-22T08:10:56;16.80;99.90
26342;DHT22;14054;50.108;8.640;2023-04-22T08:13:21;16.80;99.90
26342;DHT22;14054;50.108;8.640;2023-04-22T08:15:47;16.70;99.90
26342;DHT22;14054;50.108;8.640;2023-04-22T08:18:12;16.80;99.90
26342;DHT22;14054;50.108;8.640;2023-04-22T08:20:38;17.10;99.90
26342;DHT22;14054;50.108;8.640;2023-04-22T08:23:03;17.40;99.90
26342;DHT22;14054;50.108;8.640;2023-04-22T08:25:31;17.70;99.90
26342;DHT22;14054;50.108;8.640;2023-04-22T08:27:56;17.70;99.90
26342;DHT22;14054;50.108;8.640;2023-04-22T08:30:22;17.30;99.90
26342;DHT22;14054;50.108;8.640;2023-04-22T08:32:47;17.10;99.90
26342;DHT22;14054;50.108;8.640;2023-04-22T08:35:13;17.00;99.90
26342;DHT22;14054;50.108;8.640;2023-04-22T08:37:39;17.30;99.90
26342;DHT22;14054;50.108;8.640;2023-04-22T08:40:05;17.70;99.90
26342;DHT22;14054;50.108;8.640;2023-04-22T08:42:30;17.90;99.90
26342;DHT22;14054;50.108;8.640;2023-04-22T08:44:56;18.00;99.90
26342;DHT22;14054;50.108;8.640;2023-04-22T08:47:22;18.40;99.90
26342;DHT22;14054;50.108;8.640;2023-04-22T08:49:49;18.20;99.90
26342;DHT22;14054;50.108;8.640;2023-04-22T08:52:15;18.20;99.90
26342;DHT22;14054;50.108;8.640;2023-04-22T08:54:41;18.70;99.90
26342;DHT22;14054;50.108;8.640;2023-04-22T08:57:06;18.80;99.90
26342;DHT22;14054;50.108;8.640;2023-04-22T08:59:32;18.60;99.90
26342;DHT22;14054;50.108;8.640;2023-04-22T09:01:59;18.60;99.90
26342;DHT22;14054;50.108;8.640;2023-04-22T09:04:24;18.80;99.90
26342;DHT22;14054;50.108;8.640;2023-04-22T09:06:50;19.20;99.90
26342;DHT22;14054;50.108;8.640;2023-04-22T09:09:15;19.30;99.90
26342;DHT22;14054;50.108;8.640;2023-04-22T09:11:41;19.60;99.90
26342;DHT22;14054;50.108;8.640;2023-04-22T09:14:07;19.80;99.90
26342;DHT22;14054;50.108;8.640;2023-04-22T09:16:32;20.10;99.90
26342;DHT22;14054;50.108;8.640;2023-04-22T09:18:58;20.20;99.90
26342;DHT22;14054;50.108;8.640;2023-04-22T09:21:26;20.40;99.90
26342;DHT22;14054;50.108;8.640;2023-04-22T09:23:52;20.40;99.90
26342;DHT22;14054;50.108;8.640;2023-04-22T09:26:19;20.90;99.90
26342;DHT22;14054;50.108;8.640;2023-04-22T09:31:14;20.40;99.90
26342;DHT22;14054;50.108;8.640;2023-04-22T09:33:40;20.20;99.90
26342;DHT22;14054;50.108;8.640;2023-04-22T09:36:08;20.20;99.90
26342;DHT22;14054;50.108;8.640;2023-04-22T09:38:34;20.00;99.90
26342;DHT22;14054;50.108;8.640;2023-04-22T09:41:00;20.00;99.90
26342;DHT22;14054;50.108;8.640;2023-04-22T09:43:25;20.20;99.90
26342;DHT22;14054;50.108;8.640;2023-04-22T09:45:50;20.20;99.90
26342;DHT22;14054;50.108;8.640;2023-04-22T09:48:17;20.20;99.90
26342;DHT22;14054;50.108;8.640;2023-04-22T09:50:43;20.30;99.90
26342;DHT22;14054;50.108;8.640;2023-04-22T09:53:10;20.60;99.90
26342;DHT22;14054;50.108;8.640;2023-04-22T09:55:41;20.60;99.90
26342;DHT22;14054;50.108;8.640;2023-04-22T09:58:08;20.80;99.90
26342;DHT22;14054;50.108;8.640;2023-04-22T10:00:34;21.00;99.90
26342;DHT22;14054;50.108;8.640;2023-04-22T10:03:02;21.00;99.90
26342;DHT22;14054;50.108;8.640;2023-04-22T10:05:27;21.00;99.90
26342;DHT22;14054;50.108;8.640;2023-04-22T10:07:53;20.90;99.90
26342;DHT22;14054;50.108;8.640;2023-04-22T10:10:19;20.90;99.90
26342;DHT22;14054;50.108;8.640;2023-04-22T10:12:44;21.20;99.90
26342;DHT22;14054;50.108;8.640;2023-04-22T10:15:11;21.90;99.90
26342;DHT22;14054;50.108;8.640;2023-04-22T10:17:37;22.00;99.90
26342;DHT22;14054;50.108;8.640;2023-04-22T10:20:03;21.90;99.90
26342;DHT22;14054;50.108;8.640;2023-04-22T10:22:32;21.80;99.90
26342;DHT22;14054;50.108;8.640;2023-04-22T10:24:57;21.90;99.90
26342;DHT22;14054;50.108;8.640;2023-04-22T10:27:23;22.00;99.90
26342;DHT22;14054;50.108;8.640;2023-04-22T10:29:48;21.50;99.90
26342;DHT22;14054;50.108;8.640;2023-04-22T10:34:45;22.00;99.90
26342;DHT22;14054;50.108;8.640;2023-04-22T10:37:12;22.10;99.20
26342;DHT22;14054;50.108;8.640;2023-04-22T10:39:38;22.40;99.90
26342;DHT22;14054;50.108;8.640;2023-04-22T10:42:06;22.60;98.60
26342;DHT22;14054;50.108;8.640;2023-04-22T10:44:47;22.40;97.50
26342;DHT22;14054;50.108;8.640;2023-04-22T10:47:26;22.20;99.00
26342;DHT22;14054;50.108;8.640;2023-04-22T10:50:07;22.20;98.40
26342;DHT22;14054;50.108;8.640;2023-04-22T10:52:33;21.80;98.10
26342;DHT22;14054;50.108;8.640;2023-04-22T10:54:58;22.10;98.20
26342;DHT22;14054;50.108;8.640;2023-04-22T10:57:28;22.50;98.90
26342;DHT22;14054;50.108;8.640;2023-04-22T10:59:56;23.20;97.20
26342;DHT22;14054;50.108;8.640;2023-04-22T11:02:22;23.50;94.30
26342;DHT22;14054;50.108;8.640;2023-04-22T11:04:48;23.90;95.20
26342;DHT22;14054;50.108;8.640;2023-04-22T11:09:41;24.10;91.70
26342;DHT22;14054;50.108;8.640;2023-04-22T11:14:51;25.10;89.80
26342;DHT22;14054;50.108;8.640;2023-04-22T11:17:17;25.30;85.20
26342;DHT22;14054;50.108;8.640;2023-04-22T11:19:43;25.60;86.10
26342;DHT22;14054;50.108;8.640;2023-04-22T11:22:09;25.90;81.10
26342;DHT22;14054;50.108;8.640;2023-04-22T11:24:35;26.00;77.40
26342;DHT22;14054;50.108;8.640;2023-04-22T11:27:00;26.40;78.80
26342;DHT22;14054;50.108;8.640;2023-04-22T11:29:26;27.70;67.70
26342;DHT22;14054;50.108;8.640;2023-04-22T11:31:51;27.70;61.10
26342;DHT22;14054;50.108;8.640;2023-04-22T11:34:17;26.50;62.00
26342;DHT22;14054;50.108;8.640;2023-04-22T11:36:44;25.70;62.60
26342;DHT22;14054;50.108;8.640;2023-04-22T11:39:09;26.10;59.70
26342;DHT22;14054;50.108;8.640;2023-04-22T11:41:39;27.10;59.10
26342;DHT22;14054;50.108;8.640;2023-04-22T11:44:05;26.90;57.10
26342;DHT22;14054;50.108;8.640;2023-04-22T11:46:30;26.60;57.80
26342;DHT22;14054;50.108;8.640;2023-04-22T11:49:12;26.60;58.00
26342;DHT22;14054;50.108;8.640;2023-04-22T11:51:50;27.00;56.80
26342;DHT22;14054;50.108;8.640;2023-04-22T11:54:15;26.50;56.60
26342;DHT22;14054;50.108;8.640;2023-04-22T11:56:41;26.10;58.20
26342;DHT22;14054;50.108;8.640;2023-04-22T11:59:08;25.90;58.60
26342;DHT22;14054;50.108;8.640;2023-04-22T12:01:33;25.90;59.70
26342;DHT22;14054;50.108;8.640;2023-04-22T12:03:59;27.20;57.60
26342;DHT22;14054;50.108;8.640;2023-04-22T12:06:28;26.30;57.10
26342;DHT22;14054;50.108;8.640;2023-04-22T12:08:54;27.20;56.50
26342;DHT22;14054;50.108;8.640;2023-04-22T12:11:20;27.10;54.90
26342;DHT22;14054;50.108;8.640;2023-04-22T12:13:46;28.20;53.60
26342;DHT22;14054;50.108;8.640;2023-04-22T12:16:12;28.20;51.40
26342;DHT22;14054;50.108;8.640;2023-04-22T12:18:38;28.20;51.30
26342;DHT22;14054;50.108;8.640;2023-04-22T12:21:10;29.10;50.70
26342;DHT22;14054;50.108;8.640;2023-04-22T12:23:43;28.70;49.70
26342;DHT22;14054;50.108;8.640;2023-04-22T12:26:09;27.50;50.20
26342;DHT22;14054;50.108;8.640;2023-04-22T12:28:36;28.10;50.00
26342;DHT22;14054;50.108;8.640;2023-04-22T12:31:01;29.10;49.20
26342;DHT22;14054;50.108;8.640;2023-04-22T12:33:27;30.40;46.30
26342;DHT22;14054;50.108;8.640;2023-04-22T12:35:52;30.60;43.30
26342;DHT22;14054;50.108;8.640;2023-04-22T12:38:18;29.50;43.50
26342;DHT22;14054;50.108;8.640;2023-04-22T12:40:43;29.30;44.40
26342;DHT22;14054;50.108;8.640;2023-04-22T12:43:09;30.00;42.70
26342;DHT22;14054;50.108;8.640;2023-04-22T12:45:34;29.50;42.90
26342;DHT22;14054;50.108;8.640;2023-04-22T12:48:00;28.30;46.00
26342;DHT22;14054;50.108;8.640;2023-04-22T12:50:25;27.10;47.40
26342;DHT22;14054;50.108;8.640;2023-04-22T12:52:51;26.50;49.00
26342;DHT22;14054;50.108;8.640;2023-04-22T12:55:16;26.50;49.30
26342;DHT22;14054;50.108;8.640;2023-04-22T12:57:43;27.90;46.80
26342;DHT22;14054;50.108;8.640;2023-04-22T13:00:09;30.30;45.00
26342;DHT22;14054;50.108;8.640;2023-04-22T13:02:39;28.60;45.10
26342;DHT22;14054;50.108;8.640;2023-04-22T13:05:05;26.70;49.50
26342;DHT22;14054;50.108;8.640;2023-04-22T13:07:30;25.10;51.50
26342;DHT22;14054;50.108;8.640;2023-04-22T13:09:56;24.70;54.20
26342;DHT22;14054;50.108;8.640;2023-04-22T13:12:21;24.10;55.90
26342;DHT22;14054;50.108;8.640;2023-04-22T13:14:47;23.60;57.90
26342;DHT22;14054;50.108;8.640;2023-04-22T13:17:12;23.50;58.90
26342;DHT22;14054;50.108;8.640;2023-04-22T13:19:37;23.30;60.80
26342;DHT22;14054;50.108;8.640;2023-04-22T13:22:03;23.40;61.20
26342;DHT22;14054;50.108;8.640;2023-04-22T13:24:28;22.80;62.20
26342;DHT22;14054;50.108;8.640;2023-04-22T13:26:54;22.50;64.50
26342;DHT22;14054;50.108;8.640;2023-04-22T13:29:20;22.30;66.50
26342;DHT22;14054;50.108;8.640;2023-04-22T13:31:45;22.00;67.70
26342;DHT22;14054;50.108;8.640;2023-04-22T13:34:11;21.80;68.90
26342;DHT22;14054;50.108;8.640;2023-04-22T13:36:36;21.60;68.20
26342;DHT22;14054;50.108;8.640;2023-04-22T13:39:02;21.50;69.20
26342;DHT22;14054;50.108;8.640;2023-04-22T13:41:28;21.30;70.80
26342;DHT22;14054;50.108;8.640;2023-04-22T13:43:53;21.30;72.70
26342;DHT22;14054;50.108;8.640;2023-04-22T13:46:20;21.20;74.70
26342;DHT22;14054;50.108;8.640;2023-04-22T13:48:45;21.10;76.50
26342;DHT22;14054;50.108;8.640;2023-04-22T13:51:11;21.10;77.40
26342;DHT22;14054;50.108;8.640;2023-04-22T13:53:36;21.00;78.20
26342;DHT22;14054;50.108;8.640;2023-04-22T13:56:02;20.90;78.80
26342;DHT22;14054;50.108;8.640;2023-04-22T13:58:27;20.90;79.70
26342;DHT22;14054;50.108;8.640;2023-04-22T14:00:53;20.80;80.60
26342;DHT22;14054;50.108;8.640;2023-04-22T14:03:18;20.80;81.70
26342;DHT22;14054;50.108;8.640;2023-04-22T14:05:44;20.70;82.10
26342;DHT22;14054;50.108;8.640;2023-04-22T14:08:09;20.70;82.80
26342;DHT22;14054;50.108;8.640;2023-04-22T14:10:35;20.70;84.00
26342;DHT22;14054;50.108;8.640;2023-04-22T14:13:00;20.60;85.40
26342;DHT22;14054;50.108;8.640;2023-04-22T14:15:26;20.60;86.90
26342;DHT22;14054;50.108;8.640;2023-04-22T14:17:52;20.50;88.10
26342;DHT22;14054;50.108;8.640;2023-04-22T14:20:17;20.40;88.20
26342;DHT22;14054;50.108;8.640;2023-04-22T14:22:42;20.30;88.00
26342;DHT22;14054;50.108;8.640;2023-04-22T14:25:08;20.30;88.00
26342;DHT22;14054;50.108;8.640;2023-04-22T14:27:34;20.30;87.70
26342;DHT22;14054;50.108;8.640;2023-04-22T14:30:00;20.20;86.90
26342;DHT22;14054;50.108;8.640;2023-04-22T14:32:25;20.10;85.30
26342;DHT22;14054;50.108;8.640;2023-04-22T14:34:51;20.00;84.80
26342;DHT22;14054;50.108;8.640;2023-04-22T14:37:16;19.90;84.50
26342;DHT22;14054;50.108;8.640;2023-04-22T14:39:42;19.80;84.90
26342;DHT22;14054;50.108;8.640;2023-04-22T14:42:07;19.70;85.60
26342;DHT22;14054;50.108;8.640;2023-04-22T14:44:33;19.60;86.40
26342;DHT22;14054;50.108;8.640;2023-04-22T14:46:59;19.60;88.00
26342;DHT22;14054;50.108;8.640;2023-04-22T14:49:24;19.50;89.50
26342;DHT22;14054;50.108;8.640;2023-04-22T14:51:50;19.40;90.30
26342;DHT22;14054;50.108;8.640;2023-04-22T14:54:16;19.40;90.70
26342;DHT22;14054;50.108;8.640;2023-04-22T14:56:41;19.30;90.80
26342;DHT22;14054;50.108;8.640;2023-04-22T14:59:07;19.40;91.40
26342;DHT22;14054;50.108;8.640;2023-04-22T15:01:32;19.40;91.60
26342;DHT22;14054;50.108;8.640;2023-04-22T15:03:58;19.30;91.80
26342;DHT22;14054;50.108;8.640;2023-04-22T15:06:23;19.40;91.80
26342;DHT22;14054;50.108;8.640;2023-04-22T15:08:49;19.30;91.60
26342;DHT22;14054;50.108;8.640;2023-04-22T15:11:16;19.20;91.90
26342;DHT22;14054;50.108;8.640;2023-04-22T15:13:41;19.20;92.40
26342;DHT22;14054;50.108;8.640;2023-04-22T15:16:07;19.40;92.30
26342;DHT22;14054;50.108;8.640;2023-04-22T15:18:32;19.50;92.00
26342;DHT22;14054;50.108;8.640;2023-04-22T15:20:58;19.60;91.80
26342;DHT22;14054;50.108;8.640;2023-04-22T15:23:23;19.70;91.70
26342;DHT22;14054;50.108;8.640;2023-04-22T15:25:49;19.70;92.10
26342;DHT22;14054;50.108;8.640;2023-04-22T15:28:14;19.90;92.10
26342;DHT22;14054;50.108;8.640;2023-04-22T15:30:39;20.10;92.30